sensor_id;sensor_type;location;lat;lon;timestamp;pressure;altitude;pressure_sealevel;temperature;humidity
9261;BME280;4667;42.726;23.252;2023-04-16T08:55:41;94643.63;;;18.55;nan
9261;BME280;4667;42.726;23.252;2023-04-16T08:58:13;94646.59;;;18.39;nan
9261;BME280;4667;42.726;23.252;2023-04-16T09:00:40;94636.03;;;18.68;nan
9261;BME280;4667;42.726;23.252;2023-04-16T09:03:10;94630.03;;;19.18;nan
9261;BME280;4667;42.726;23.252;2023-04-16T09:05:37;94637.81;;;19.38;nan
9261;BME280;4667;42.726;23.252;2023-04-16T09:08:05;94626.53;;;19.36;nan
9261;BME280;4667;42.726;23.252;2023-04-16T09:10:32;94627.13;;;19.31;nan
9261;BME280;4667;42.726;23.252;2023-04-16T09:13:01;94619.66;;;19.04;nan
9261;BME280;4667;42.726;23.252;2023-04-16T09:15:30;94617.66;;;18.96;nan
9261;BME280;4667;42.726;23.252;2023-04-16T09:17:57;94627.38;;;18.69;nan
9261;BME280;4667;42.726;23.252;2023-04-16T09:20:24;94630.63;;;18.46;nan
9261;BME280;4667;42.726;23.252;2023-04-16T09:22:51;94641.78;;;18.52;nan
9261;BME280;4667;42.726;23.252;2023-04-16T09:25:19;94632.56;;;18.36;nan
9261;BME280;4667;42.726;23.252;2023-04-16T09:27:48;94630.28;;;18.04;nan
9261;BME280;4667;42.726;23.252;2023-04-16T09:30:21;94626.56;;;18.20;nan
9261;BME280;4667;42.726;23.252;2023-04-16T09:32:48;94630.06;;;17.89;nan
9261;BME280;4667;42.726;23.252;2023-04-16T09:35:17;94632.28;;;18.04;nan
9261;BME280;4667;42.726;23.252;2023-04-16T09:37:53;94630.22;;;18.17;nan
9261;BME280;4667;42.726;23.252;2023-04-16T09:40:23;94632.31;;;18.13;nan
9261;BME280;4667;42.726;23.252;2023-04-16T09:42:51;94632.44;;;18.09;nan
9261;BME280;4667;42.726;23.252;2023-04-16T09:45:20;94624.06;;;18.13;nan
9261;BME280;4667;42.726;23.252;2023-04-16T09:47:47;94627.53;;;18.35;nan
9261;BME280;4667;42.726;23.252;2023-04-16T09:50:16;94625.44;;;18.48;nan
9261;BME280;4667;42.726;23.252;2023-04-16T09:52:47;94626.44;;;18.63;nan
9261;BME280;4667;42.726;23.252;2023-04-16T09:55:15;94608.34;;;18.93;nan
9261;BME280;4667;42.726;23.252;2023-04-16T09:57:43;94616.31;;;19.55;nan
9261;BME280;4667;42.726;23.252;2023-04-16T10:00:17;94613.31;;;20.13;nan
9261;BME280;4667;42.726;23.252;2023-04-16T10:02:45;94599.69;;;21.08;nan
9261;BME280;4667;42.726;23.252;2023-04-16T10:05:14;94604.66;;;21.57;nan
9261;BME280;4667;42.726;23.252;2023-04-16T10:07:43;94595.91;;;21.59;nan
9261;BME280;4667;42.726;23.252;2023-04-16T10:10:09;94599.78;;;21.14;nan
9261;BME280;4667;42.726;23.252;2023-04-16T10:12:37;94590.34;;;21.06;nan
9261;BME280;4667;42.726;23.252;2023-04-16T10:15:05;94594.66;;;20.83;nan
9261;BME280;4667;42.726;23.252;2023-04-16T10:17:32;94590.44;;;20.73;nan
9261;BME280;4667;42.726;23.252;2023-04-16T10:20:00;94594.59;;;20.26;nan
9261;BME280;4667;42.726;23.252;2023-04-16T10:22:28;94587.75;;;20.22;nan
9261;BME280;4667;42.726;23.252;2023-04-16T10:24:56;94589.66;;;20.07;nan
9261;BME280;4667;42.726;23.252;2023-04-16T10:27:25;94588.53;;;19.71;nan
9261;BME280;4667;42.726;23.252;2023-04-16T10:29:55;94592.06;;;19.35;nan
9261;BME280;4667;42.726;23.252;2023-04-16T10:32:22;94590.53;;;18.89;nan
9261;BME280;4667;42.726;23.252;2023-04-16T10:34:53;94586.97;;;18.70;nan
9261;BME280;4667;42.726;23.252;2023-04-16T10:37:30;94578.03;;;18.48;nan
9261;BME280;4667;42.726;23.252;2023-04-16T10:39:57;94573.09;;;18.73;nan
9261;BME280;4667;42.726;23.252;2023-04-16T10:42:24;94581.94;;;18.68;nan
9261;BME280;4667;42.726;23.252;2023-04-16T10:44:51;94579.81;;;18.63;nan
9261;BME280;4667;42.726;23.252;2023-04-16T10:47:18;94575.44;;;18.93;nan
9261;BME280;4667;42.726;23.252;2023-04-16T10:49:46;94575.72;;;19.23;nan
9261;BME280;4667;42.726;23.252;2023-04-16T10:52:29;94574.50;;;19.51;nan
9261;BME280;4667;42.726;23.252;2023-04-16T10:54:58;94578.84;;;19.94;nan
9261;BME280;4667;42.726;23.252;2023-04-16T10:57:28;94569.91;;;20.08;nan
9261;BME280;4667;42.726;23.252;2023-04-16T10:59:54;94571.94;;;20.08;nan
9261;BME280;4667;42.726;23.252;2023-04-16T11:02:27;94571.84;;;19.84;nan
9261;BME280;4667;42.726;23.252;2023-04-16T11:04:55;94559.22;;;20.10;nan
9261;BME280;4667;42.726;23.252;2023-04-16T11:07:33;94554.09;;;19.94;nan
9261;BME280;4667;42.726;23.252;2023-04-16T11:10:02;94550.97;;;20.10;nan
9261;BME280;4667;42.726;23.252;2023-04-16T11:12:33;94552.69;;;20.41;nan
9261;BME280;4667;42.726;23.252;2023-04-16T11:15:03;94544.97;;;21.01;nan
9261;BME280;4667;42.726;23.252;2023-04-16T11:17:35;94541.28;;;21.72;nan
9261;BME280;4667;42.726;23.252;2023-04-16T11:20:04;94541.38;;;22.07;nan
9261;BME280;4667;42.726;23.252;2023-04-16T11:22:34;94544.19;;;22.62;nan
9261;BME280;4667;42.726;23.252;2023-04-16T11:25:01;94533.50;;;22.35;nan
9261;BME280;4667;42.726;23.252;2023-04-16T11:27:29;94524.59;;;22.11;nan
9261;BME280;4667;42.726;23.252;2023-04-16T11:29:58;94523.06;;;22.24;nan
9261;BME280;4667;42.726;23.252;2023-04-16T11:32:25;94517.91;;;22.32;nan
9261;BME280;4667;42.726;23.252;2023-04-16T11:34:51;94519.88;;;21.82;nan
9261;BME280;4667;42.726;23.252;2023-04-16T11:37:30;94525.56;;;21.34;nan
9261;BME280;4667;42.726;23.252;2023-04-16T11:39:59;94516.66;;;21.01;nan
9261;BME280;4667;42.726;23.252;2023-04-16T11:42:26;94511.66;;;20.75;nan
9261;BME280;4667;42.726;23.252;2023-04-16T11:44:54;94503.03;;;20.83;nan
9261;BME280;4667;42.726;23.252;2023-04-16T11:47:22;94506.38;;;20.63;nan
9261;BME280;4667;42.726;23.252;2023-04-16T11:49:49;94503.69;;;20.30;nan
9261;BME280;4667;42.726;23.252;2023-04-16T11:52:25;94506.94;;;20.19;nan
9261;BME280;4667;42.726;23.252;2023-04-16T11:54:55;94507.94;;;19.98;nan
9261;BME280;4667;42.726;23.252;2023-04-16T11:57:27;94504.03;;;19.90;nan
9261;BME280;4667;42.726;23.252;2023-04-16T11:59:55;94500.75;;;19.68;nan
9261;BME280;4667;42.726;23.252;2023-04-16T12:02:35;94499.81;;;19.71;nan
9261;BME280;4667;42.726;23.252;2023-04-16T12:05:03;94489.41;;;19.75;nan
9261;BME280;4667;42.726;23.252;2023-04-16T12:07:30;94491.34;;;19.50;nan
9261;BME280;4667;42.726;23.252;2023-04-16T12:10:07;94486.28;;;19.49;nan
9261;BME280;4667;42.726;23.252;2023-04-16T12:12:35;94477.59;;;19.60;nan
9261;BME280;4667;42.726;23.252;2023-04-16T12:15:02;94477.34;;;19.81;nan
9261;BME280;4667;42.726;23.252;2023-04-16T12:17:30;94470.09;;;19.93;nan
9261;BME280;4667;42.726;23.252;2023-04-16T12:19:58;94462.75;;;19.99;nan
9261;BME280;4667;42.726;23.252;2023-04-16T12:22:29;94459.13;;;20.17;nan
9261;BME280;4667;42.726;23.252;2023-04-16T12:25:00;94460.38;;;20.63;nan
9261;BME280;4667;42.726;23.252;2023-04-16T12:27:43;94462.00;;;21.08;nan
9261;BME280;4667;42.726;23.252;2023-04-16T12:30:12;94456.41;;;21.17;nan
9261;BME280;4667;42.726;23.252;2023-04-16T12:32:39;94456.66;;;21.05;nan
9261;BME280;4667;42.726;23.252;2023-04-16T12:35:07;94458.03;;;20.86;nan
9261;BME280;4667;42.726;23.252;2023-04-16T12:37:34;94455.41;;;20.91;nan
9261;BME280;4667;42.726;23.252;2023-04-16T12:40:01;94449.31;;;20.87;nan
9261;BME280;4667;42.726;23.252;2023-04-16T12:42:29;94453.53;;;20.97;nan
9261;BME280;4667;42.726;23.252;2023-04-16T12:45:02;94441.81;;;20.73;nan
9261;BME280;4667;42.726;23.252;2023-04-16T12:47:29;94444.81;;;20.60;nan
9261;BME280;4667;42.726;23.252;2023-04-16T12:49:56;94449.84;;;20.38;nan
9261;BME280;4667;42.726;23.252;2023-04-16T12:52:23;94446.28;;;20.47;nan
9261;BME280;4667;42.726;23.252;2023-04-16T12:54:50;94448.53;;;20.01;nan
9261;BME280;4667;42.726;23.252;2023-04-16T12:57:16;94446.56;;;20.01;nan
9261;BME280;4667;42.726;23.252;2023-04-16T12:59:43;94444.00;;;19.55;nan
9261;BME280;4667;42.726;23.252;2023-04-16T13:02:12;94440.69;;;19.33;nan
9261;BME280;4667;42.726;23.252;2023-04-16T13:04:39;94436.19;;;19.12;nan
9261;BME280;4667;42.726;23.252;2023-04-16T13:07:06;94429.78;;;18.97;nan
9261;BME280;4667;42.726;23.252;2023-04-16T13:09:35;94435.63;;;18.81;nan
9261;BME280;4667;42.726;23.252;2023-04-16T13:12:02;94430.72;;;18.85;nan
9261;BME280;4667;42.726;23.252;2023-04-16T13:14:28;94433.47;;;18.85;nan
9261;BME280;4667;42.726;23.252;2023-04-16T13:16:55;94430.38;;;19.01;nan
9261;BME280;4667;42.726;23.252;2023-04-16T13:19:23;94427.53;;;18.77;nan
9261;BME280;4667;42.726;23.252;2023-04-16T13:21:50;94424.34;;;18.69;nan
9261;BME280;4667;42.726;23.252;2023-04-16T13:24:17;94432.69;;;18.20;nan
9261;BME280;4667;42.726;23.252;2023-04-16T13:26:44;94442.38;;;17.94;nan
9261;BME280;4667;42.726;23.252;2023-04-16T13:29:10;94436.66;;;17.61;nan
9261;BME280;4667;42.726;23.252;2023-04-16T13:31:37;94433.38;;;17.13;nan
9261;BME280;4667;42.726;23.252;2023-04-16T13:34:04;94425.16;;;16.61;nan
9261;BME280;4667;42.726;23.252;2023-04-16T13:36:32;94423.69;;;16.34;nan
9261;BME280;4667;42.726;23.252;2023-04-16T13:38:59;94415.34;;;16.16;nan
9261;BME280;4667;42.726;23.252;2023-04-16T13:41:29;94423.53;;;16.16;nan
9261;BME280;4667;42.726;23.252;2023-04-16T13:43:58;94422.38;;;16.05;nan
9261;BME280;4667;42.726;23.252;2023-04-16T13:46:25;94420.97;;;16.00;nan
9261;BME280;4667;42.726;23.252;2023-04-16T13:48:52;94416.50;;;15.93;nan
9261;BME280;4667;42.726;23.252;2023-04-16T13:51:20;94430.09;;;15.72;nan
9261;BME280;4667;42.726;23.252;2023-04-16T13:54:12;94425.38;;;15.34;nan
9261;BME280;4667;42.726;23.252;2023-04-16T13:56:39;94438.38;;;15.18;nan
9261;BME280;4667;42.726;23.252;2023-04-16T13:59:08;94462.09;;;14.34;nan
9261;BME280;4667;42.726;23.252;2023-04-16T14:01:36;94439.63;;;14.30;nan
9261;BME280;4667;42.726;23.252;2023-04-16T14:04:03;94442.69;;;14.32;nan
9261;BME280;4667;42.726;23.252;2023-04-16T14:06:31;94446.28;;;14.29;nan
9261;BME280;4667;42.726;23.252;2023-04-16T14:09:09;94448.59;;;14.14;nan
9261;BME280;4667;42.726;23.252;2023-04-16T14:11:38;94451.50;;;14.23;nan
9261;BME280;4667;42.726;23.252;2023-04-16T14:14:06;94450.19;;;14.28;nan
9261;BME280;4667;42.726;23.252;2023-04-16T14:16:33;94451.91;;;14.22;nan
9261;BME280;4667;42.726;23.252;2023-04-16T14:19:00;94449.25;;;14.18;nan
9261;BME280;4667;42.726;23.252;2023-04-16T14:21:27;94449.06;;;14.25;nan
9261;BME280;4667;42.726;23.252;2023-04-16T14:23:54;94457.59;;;14.44;nan
9261;BME280;4667;42.726;23.252;2023-04-16T14:26:21;94476.00;;;14.68;nan
9261;BME280;4667;42.726;23.252;2023-04-16T14:28:55;94477.59;;;14.95;nan
9261;BME280;4667;42.726;23.252;2023-04-16T14:31:21;94479.91;;;15.09;nan
9261;BME280;4667;42.726;23.252;2023-04-16T14:33:48;94491.38;;;15.17;nan
9261;BME280;4667;42.726;23.252;2023-04-16T14:36:15;94492.59;;;15.28;nan
9261;BME280;4667;42.726;23.252;2023-04-16T14:38:46;94500.38;;;15.30;nan
9261;BME280;4667;42.726;23.252;2023-04-16T14:41:12;94501.56;;;15.29;nan
9261;BME280;4667;42.726;23.252;2023-04-16T14:43:39;94506.50;;;15.46;nan
9261;BME280;4667;42.726;23.252;2023-04-16T14:46:08;94506.50;;;15.46;nan
9261;BME280;4667;42.726;23.252;2023-04-16T14:48:34;94506.47;;;15.34;nan
9261;BME280;4667;42.726;23.252;2023-04-16T14:51:01;94503.19;;;15.26;nan
9261;BME280;4667;42.726;23.252;2023-04-16T14:53:28;94499.44;;;15.07;nan
9261;BME280;4667;42.726;23.252;2023-04-16T14:55:57;94496.47;;;15.02;nan
9261;BME280;4667;42.726;23.252;2023-04-16T14:58:24;94508.44;;;14.92;nan
9261;BME280;4667;42.726;23.252;2023-04-16T15:00:51;94503.31;;;14.81;nan
9261;BME280;4667;42.726;23.252;2023-04-16T15:03:19;94512.19;;;14.69;nan
9261;BME280;4667;42.726;23.252;2023-04-16T15:05:47;94513.81;;;14.66;nan
9261;BME280;4667;42.726;23.252;2023-04-16T15:08:19;94511.28;;;14.59;nan
9261;BME280;4667;42.726;23.252;2023-04-16T15:10:46;94507.22;;;14.35;nan
9261;BME280;4667;42.726;23.252;2023-04-16T15:13:13;94529.72;;;14.39;nan
9261;BME280;4667;42.726;23.252;2023-04-16T15:15:39;94518.53;;;14.50;nan
9261;BME280;4667;42.726;23.252;2023-04-16T15:18:06;94512.31;;;14.49;nan
9261;BME280;4667;42.726;23.252;2023-04-16T15:20:35;94522.34;;;14.36;nan
9261;BME280;4667;42.726;23.252;2023-04-16T15:23:02;94528.19;;;14.38;nan
9261;BME280;4667;42.726;23.252;2023-04-16T15:25:29;94525.97;;;14.17;nan
9261;BME280;4667;42.726;23.252;2023-04-16T15:27:56;94515.41;;;14.19;nan
9261;BME280;4667;42.726;23.252;2023-04-16T15:30:23;94515.25;;;13.94;nan
9261;BME280;4667;42.726;23.252;2023-04-16T15:32:50;94520.44;;;13.88;nan
9261;BME280;4667;42.726;23.252;2023-04-16T15:35:20;94515.25;;;13.94;nan
9261;BME280;4667;42.726;23.252;2023-04-16T15:37:48;94519.47;;;13.95;nan
9261;BME280;4667;42.726;23.252;2023-04-16T15:40:17;94521.88;;;13.93;nan
9261;BME280;4667;42.726;23.252;2023-04-16T15:42:44;94526.03;;;13.81;nan
9261;BME280;4667;42.726;23.252;2023-04-16T15:45:11;94525.13;;;13.87;nan
9261;BME280;4667;42.726;23.252;2023-04-16T15:47:38;94530.97;;;13.86;nan
9261;BME280;4667;42.726;23.252;2023-04-16T15:50:05;94533.09;;;13.78;nan
9261;BME280;4667;42.726;23.252;2023-04-16T15:52:32;94538.03;;;13.83;nan
9261;BME280;4667;42.726;23.252;2023-04-16T15:55:02;94541.75;;;13.73;nan
9261;BME280;4667;42.726;23.252;2023-04-16T15:57:29;94550.94;;;13.63;nan
9261;BME280;4667;42.726;23.252;2023-04-16T15:59:55;94544.22;;;13.68;nan
9261;BME280;4667;42.726;23.252;2023-04-16T16:02:23;94543.84;;;13.49;nan
9261;BME280;4667;42.726;23.252;2023-04-16T16:04:50;94560.94;;;13.50;nan
9261;BME280;4667;42.726;23.252;2023-04-16T16:07:16;94547.44;;;13.46;nan
9261;BME280;4667;42.726;23.252;2023-04-16T16:09:44;94551.84;;;13.40;nan
9261;BME280;4667;42.726;23.252;2023-04-16T16:12:14;94555.28;;;13.41;nan
9261;BME280;4667;42.726;23.252;2023-04-16T16:14:44;94566.25;;;13.18;nan
9261;BME280;4667;42.726;23.252;2023-04-16T16:17:10;94567.44;;;13.36;nan
9261;BME280;4667;42.726;23.252;2023-04-16T16:19:37;94565.00;;;13.42;nan
9261;BME280;4667;42.726;23.252;2023-04-16T16:22:04;94565.84;;;13.39;nan
9261;BME280;4667;42.726;23.252;2023-04-16T16:24:31;94567.38;;;13.40;nan
9261;BME280;4667;42.726;23.252;2023-04-16T16:26:58;94561.03;;;13.27;nan
9261;BME280;4667;42.726;23.252;2023-04-16T16:29:27;94562.47;;;13.12;nan
9261;BME280;4667;42.726;23.252;2023-04-16T16:31:55;94560.56;;;13.32;nan
9261;BME280;4667;42.726;23.252;2023-04-16T16:34:22;94557.75;;;13.35;nan
9261;BME280;4667;42.726;23.252;2023-04-16T16:36:49;94551.97;;;13.33;nan
9261;BME280;4667;42.726;23.252;2023-04-16T16:39:16;94555.22;;;13.44;nan
9261;BME280;4667;42.726;23.252;2023-04-16T16:41:43;94561.09;;;13.43;nan
9261;BME280;4667;42.726;23.252;2023-04-16T16:44:11;94559.69;;;13.35;nan
9261;BME280;4667;42.726;23.252;2023-04-16T16:46:39;94571.00;;;13.33;nan
9261;BME280;4667;42.726;23.252;2023-04-16T16:49:11;94570.19;;;13.53;nan
9261;BME280;4667;42.726;23.252;2023-04-16T16:51:39;94578.03;;;13.51;nan
9261;BME280;4667;42.726;23.252;2023-04-16T16:54:06;94588.50;;;13.52;nan
9261;BME280;4667;42.726;23.252;2023-04-16T16:56:33;94578.72;;;13.55;nan
9261;BME280;4667;42.726;23.252;2023-04-16T16:59:01;94590.72;;;13.57;nan
9261;BME280;4667;42.726;23.252;2023-04-16T17:01:42;94589.88;;;13.60;nan
9261;BME280;4667;42.726;23.252;2023-04-16T17:04:09;94590.63;;;13.61;nan
9261;BME280;4667;42.726;23.252;2023-04-16T17:06:36;94590.28;;;13.59;nan
9261;BME280;4667;42.726;23.252;2023-04-16T17:09:03;94589.22;;;13.72;nan
9261;BME280;4667;42.726;23.252;2023-04-16T17:11:31;94592.28;;;13.74;nan
9261;BME280;4667;42.726;23.252;2023-04-16T17:13:59;94595.94;;;13.48;nan
9261;BME280;4667;42.726;23.252;2023-04-16T17:16:25;94591.56;;;13.54;nan
9261;BME280;4667;42.726;23.252;2023-04-16T17:18:54;94594.16;;;13.41;nan
9261;BME280;4667;42.726;23.252;2023-04-16T17:21:21;94601.06;;;13.46;nan
9261;BME280;4667;42.726;23.252;2023-04-16T17:23:48;94602.66;;;13.43;nan
9261;BME280;4667;42.726;23.252;2023-04-16T17:26:15;94592.00;;;13.33;nan
9261;BME280;4667;42.726;23.252;2023-04-16T17:28:41;94595.91;;;13.12;nan
9261;BME280;4667;42.726;23.252;2023-04-16T17:31:08;94591.00;;;13.03;nan
9261;BME280;4667;42.726;23.252;2023-04-16T17:33:35;94600.38;;;12.99;nan
9261;BME280;4667;42.726;23.252;2023-04-16T17:36:07;94593.72;;;13.03;nan
9261;BME280;4667;42.726;23.252;2023-04-16T17:38:35;94591.00;;;13.03;nan
9261;BME280;4667;42.726;23.252;2023-04-16T17:41:02;94595.03;;;12.95;nan
9261;BME280;4667;42.726;23.252;2023-04-16T17:43:29;94594.22;;;12.98;nan
9261;BME280;4667;42.726;23.252;2023-04-16T17:45:56;94592.31;;;12.95;nan
9261;BME280;4667;42.726;23.252;2023-04-16T17:48:22;94591.91;;;12.97;nan
9261;BME280;4667;42.726;23.252;2023-04-16T17:50:50;94596.41;;;12.84;nan
9261;BME280;4667;42.726;23.252;2023-04-16T17:53:18;94590.00;;;12.74;nan
9261;BME280;4667;42.726;23.252;2023-04-16T17:55:49;94592.06;;;12.66;nan
9261;BME280;4667;42.726;23.252;2023-04-16T17:58:16;94597.56;;;12.63;nan
9261;BME280;4667;42.726;23.252;2023-04-16T18:00:43;94598.91;;;12.51;nan
9261;BME280;4667;42.726;23.252;2023-04-16T18:03:10;94595.09;;;12.49;nan
9261;BME280;4667;42.726;23.252;2023-04-16T18:05:38;94602.84;;;12.50;nan
9261;BME280;4667;42.726;23.252;2023-04-16T18:08:05;94607.91;;;12.48;nan
9261;BME280;4667;42.726;23.252;2023-04-16T18:10:33;94603.72;;;12.44;nan
9261;BME280;4667;42.726;23.252;2023-04-16T18:13:00;94603.34;;;12.42;nan
9261;BME280;4667;42.726;23.252;2023-04-16T18:15:29;94604.53;;;12.41;nan
9261;BME280;4667;42.726;23.252;2023-04-16T18:17:56;94609.56;;;12.42;nan
9261;BME280;4667;42.726;23.252;2023-04-16T18:20:23;94603.72;;;12.20;nan
9261;BME280;4667;42.726;23.252;2023-04-16T18:22:50;94605.66;;;12.20;nan
9261;BME280;4667;42.726;23.252;2023-04-16T18:25:17;94617.38;;;12.13;nan
9261;BME280;4667;42.726;23.252;2023-04-16T18:27:45;94616.22;;;12.14;nan
9261;BME280;4667;42.726;23.252;2023-04-16T18:30:12;94609.28;;;12.10;nan
9261;BME280;4667;42.726;23.252;2023-04-16T18:32:42;94601.81;;;12.17;nan
9261;BME280;4667;42.726;23.252;2023-04-16T18:35:09;94607.09;;;12.01;nan
9261;BME280;4667;42.726;23.252;2023-04-16T18:37:36;94606.63;;;12.06;nan
9261;BME280;4667;42.726;23.252;2023-04-16T18:40:05;94608.66;;;12.02;nan
9261;BME280;4667;42.726;23.252;2023-04-16T18:42:35;94603.56;;;12.04;nan
9261;BME280;4667;42.726;23.252;2023-04-16T18:45:03;94606.53;;;12.13;nan
9261;BME280;4667;42.726;23.252;2023-04-16T18:47:36;94611.28;;;12.06;nan
9261;BME280;4667;42.726;23.252;2023-04-16T18:50:07;94608.41;;;12.16;nan
9261;BME280;4667;42.726;23.252;2023-04-16T18:52:36;94605.81;;;12.09;nan
9261;BME280;4667;42.726;23.252;2023-04-16T18:55:03;94607.19;;;12.21;nan
9261;BME280;4667;42.726;23.252;2023-04-16T18:57:31;94611.13;;;12.40;nan
9261;BME280;4667;42.726;23.252;2023-04-16T18:59:57;94607.03;;;12.32;nan
9261;BME280;4667;42.726;23.252;2023-04-16T19:02:26;94605.25;;;12.45;nan
9261;BME280;4667;42.726;23.252;2023-04-16T19:04:53;94609.56;;;12.42;nan
9261;BME280;4667;42.726;23.252;2023-04-16T19:07:20;94612.38;;;12.35;nan
9261;BME280;4667;42.726;23.252;2023-04-16T19:09:47;94610.22;;;12.50;nan
9261;BME280;4667;42.726;23.252;2023-04-16T19:12:14;94609.16;;;12.44;nan
9261;BME280;4667;42.726;23.252;2023-04-16T19:14:41;94604.41;;;12.48;nan
9261;BME280;4667;42.726;23.252;2023-04-16T19:17:08;94606.78;;;12.46;nan
9261;BME280;4667;42.726;23.252;2023-04-16T19:19:37;94615.09;;;12.35;nan
9261;BME280;4667;42.726;23.252;2023-04-16T19:22:04;94612.16;;;12.26;nan
9261;BME280;4667;42.726;23.252;2023-04-16T19:24:31;94614.19;;;12.18;nan
9261;BME280;4667;42.726;23.252;2023-04-16T19:26:58;94615.50;;;12.34;nan
9261;BME280;4667;42.726;23.252;2023-04-16T19:29:25;94614.75;;;12.33;nan
9261;BME280;4667;42.726;23.252;2023-04-16T19:31:52;94612.34;;;12.39;nan
9261;BME280;4667;42.726;23.252;2023-04-16T19:34:18;94611.44;;;12.45;nan
9261;BME280;4667;42.726;23.252;2023-04-16T19:36:47;94599.56;;;12.36;nan
9261;BME280;4667;42.726;23.252;2023-04-16T19:39:13;94597.50;;;12.43;nan
9261;BME280;4667;42.726;23.252;2023-04-16T19:41:40;94596.84;;;12.36;nan
9261;BME280;4667;42.726;23.252;2023-04-16T19:44:07;94596.81;;;12.39;nan
9261;BME280;4667;42.726;23.252;2023-04-16T19:46:35;94594.84;;;12.40;nan
9261;BME280;4667;42.726;23.252;2023-04-16T19:49:06;94595.69;;;12.37;nan
9261;BME280;4667;42.726;23.252;2023-04-16T19:51:32;94592.78;;;12.47;nan
9261;BME280;4667;42.726;23.252;2023-04-16T19:54:00;94602.53;;;12.45;nan
9261;BME280;4667;42.726;23.252;2023-04-16T19:56:27;94597.44;;;12.47;nan
9261;BME280;4667;42.726;23.252;2023-04-16T19:58:54;94592.13;;;12.40;nan
9261;BME280;4667;42.726;23.252;2023-04-16T20:01:21;94594.22;;;12.32;nan
9261;BME280;4667;42.726;23.252;2023-04-16T20:03:49;94593.44;;;12.32;nan
9261;BME280;4667;42.726;23.252;2023-04-16T20:06:15;94598.56;;;12.03;nan
9261;BME280;4667;42.726;23.252;2023-04-16T20:08:42;94604.28;;;12.08;nan
9261;BME280;4667;42.726;23.252;2023-04-16T20:11:11;94595.03;;;12.29;nan
9261;BME280;4667;42.726;23.252;2023-04-16T20:13:38;94587.66;;;12.30;nan
9261;BME280;4667;42.726;23.252;2023-04-16T20:16:05;94602.34;;;12.32;nan
9261;BME280;4667;42.726;23.252;2023-04-16T20:18:33;94597.81;;;12.25;nan
9261;BME280;4667;42.726;23.252;2023-04-16T20:21:05;94593.03;;;12.33;nan
9261;BME280;4667;42.726;23.252;2023-04-16T20:23:32;94593.38;;;12.35;nan
9261;BME280;4667;42.726;23.252;2023-04-16T20:26:02;94586.66;;;12.43;nan
9261;BME280;4667;42.726;23.252;2023-04-16T20:28:30;94584.06;;;12.36;nan
9261;BME280;4667;42.726;23.252;2023-04-16T20:30:57;94581.16;;;12.47;nan
9261;BME280;4667;42.726;23.252;2023-04-16T20:33:24;94582.31;;;12.46;nan
9261;BME280;4667;42.726;23.252;2023-04-16T20:35:50;94589.66;;;12.49;nan
9261;BME280;4667;42.726;23.252;2023-04-16T20:38:17;94591.09;;;12.57;nan
9261;BME280;4667;42.726;23.252;2023-04-16T20:40:48;94586.06;;;12.55;nan
9261;BME280;4667;42.726;23.252;2023-04-16T20:43:33;94594.22;;;12.55;nan
9261;BME280;4667;42.726;23.252;2023-04-16T20:46:03;94596.06;;;12.58;nan
9261;BME280;4667;42.726;23.252;2023-04-16T20:48:31;94593.03;;;12.56;nan
9261;BME280;4667;42.726;23.252;2023-04-16T20:50:58;94585.56;;;12.60;nan
9261;BME280;4667;42.726;23.252;2023-04-16T20:53:26;94594.13;;;12.59;nan
9261;BME280;4667;42.726;23.252;2023-04-16T20:55:53;94594.97;;;12.56;nan
9261;BME280;4667;42.726;23.252;2023-04-16T20:58:19;94591.41;;;12.59;nan
9261;BME280;4667;42.726;23.252;2023-04-16T21:00:49;94595.66;;;12.60;nan
9261;BME280;4667;42.726;23.252;2023-04-16T21:03:16;94593.72;;;12.60;nan
9261;BME280;4667;42.726;23.252;2023-04-16T21:05:46;94594.53;;;12.57;nan
9261;BME280;4667;42.726;23.252;2023-04-16T21:08:14;94587.94;;;12.58;nan
9261;BME280;4667;42.726;23.252;2023-04-16T21:10:41;94593.06;;;12.53;nan
9261;BME280;4667;42.726;23.252;2023-04-16T21:13:08;94584.50;;;12.54;nan
9261;BME280;4667;42.726;23.252;2023-04-16T21:15:36;94588.78;;;12.55;nan
9261;BME280;4667;42.726;23.252;2023-04-16T21:18:04;94583.47;;;12.48;nan
9261;BME280;4667;42.726;23.252;2023-04-16T21:20:32;94589.25;;;12.50;nan
9261;BME280;4667;42.726;23.252;2023-04-16T21:22:59;94582.69;;;12.48;nan
9261;BME280;4667;42.726;23.252;2023-04-16T21:25:25;94577.94;;;12.52;nan
9261;BME280;4667;42.726;23.252;2023-04-16T21:27:52;94571.00;;;12.51;nan
9261;BME280;4667;42.726;23.252;2023-04-16T21:30:19;94570.25;;;12.50;nan
9261;BME280;4667;42.726;23.252;2023-04-16T21:32:46;94582.09;;;12.37;nan
9261;BME280;4667;42.726;23.252;2023-04-16T21:35:14;94573.88;;;12.40;nan
9261;BME280;4667;42.726;23.252;2023-04-16T21:37:41;94578.53;;;12.40;nan
9261;BME280;4667;42.726;23.252;2023-04-16T21:40:08;94577.47;;;12.34;nan
9261;BME280;4667;42.726;23.252;2023-04-16T21:42:35;94586.97;;;12.45;nan
9261;BME280;4667;42.726;23.252;2023-04-16T21:45:05;94578.84;;;12.45;nan
9261;BME280;4667;42.726;23.252;2023-04-16T21:47:32;94584.28;;;12.45;nan
9261;BME280;4667;42.726;23.252;2023-04-16T21:49:58;94580.44;;;12.43;nan
9261;BME280;4667;42.726;23.252;2023-04-16T21:52:26;94578.09;;;12.45;nan
9261;BME280;4667;42.726;23.252;2023-04-16T21:54:53;94585.09;;;12.42;nan
9261;BME280;4667;42.726;23.252;2023-04-16T21:57:20;94579.69;;;12.42;nan
9261;BME280;4667;42.726;23.252;2023-04-16T21:59:46;94574.44;;;12.32;nan
9261;BME280;4667;42.726;23.252;2023-04-16T22:02:13;94574.44;;;12.32;nan
9261;BME280;4667;42.726;23.252;2023-04-16T22:04:40;94574.47;;;12.28;nan
9261;BME280;4667;42.726;23.252;2023-04-16T22:07:08;94565.16;;;12.29;nan
9261;BME280;4667;42.726;23.252;2023-04-16T22:09:37;94574.06;;;12.30;nan
9261;BME280;4667;42.726;23.252;2023-04-16T22:12:04;94575.31;;;12.25;nan
9261;BME280;4667;42.726;23.252;2023-04-16T22:14:34;94567.16;;;12.25;nan
9261;BME280;4667;42.726;23.252;2023-04-16T22:17:01;94572.72;;;12.18;nan
9261;BME280;4667;42.726;23.252;2023-04-16T22:19:28;94570.53;;;12.09;nan
9261;BME280;4667;42.726;23.252;2023-04-16T22:21:55;94570.88;;;12.11;nan
9261;BME280;4667;42.726;23.252;2023-04-16T22:24:22;94570.53;;;12.09;nan
9261;BME280;4667;42.726;23.252;2023-04-16T22:26:50;94568.56;;;12.10;nan
9261;BME280;4667;42.726;23.252;2023-04-16T22:29:17;94569.41;;;12.07;nan
9261;BME280;4667;42.726;23.252;2023-04-16T22:31:43;94559.25;;;12.11;nan